sensor_id;sensor_type;location;lat;lon;timestamp;pressure;altitude;pressure_sealevel;temperature;humidity
65013;BME280;51715;39.432;-77.518;2023-02-13T05:04:02;98649.82;;;6.14;46.36
65013;BME280;51715;39.432;-77.518;2023-02-13T05:06:31;98644.74;;;6.31;46.34
65013;BME280;51715;39.432;-77.518;2023-02-13T05:08:59;98639.00;;;6.48;45.54
65013;BME280;51715;39.432;-77.518;2023-02-13T05:11:27;98636.57;;;6.65;45.57
65013;BME280;51715;39.432;-77.518;2023-02-13T05:13:57;98638.62;;;6.78;46.07
65013;BME280;51715;39.432;-77.518;2023-02-13T05:16:26;98629.11;;;6.30;46.18
65013;BME280;51715;39.432;-77.518;2023-02-13T05:18:55;98627.76;;;6.29;46.61
65013;BME280;51715;39.432;-77.518;2023-02-13T05:21:23;98622.15;;;6.43;46.52
65013;BME280;51715;39.432;-77.518;2023-02-13T05:23:51;98633.00;;;6.09;47.63
65013;BME280;51715;39.432;-77.518;2023-02-13T05:26:19;98634.85;;;5.78;47.44
65013;BME280;51715;39.432;-77.518;2023-02-13T05:28:47;98635.66;;;6.40;47.17
65013;BME280;51715;39.432;-77.518;2023-02-13T05:31:16;98635.08;;;5.87;47.57
65013;BME280;51715;39.432;-77.518;2023-02-13T05:33:44;98628.66;;;6.35;46.71
65013;BME280;51715;39.432;-77.518;2023-02-13T05:36:13;98629.61;;;5.74;47.31
65013;BME280;51715;39.432;-77.518;2023-02-13T05:38:41;98626.70;;;5.93;47.38
65013;BME280;51715;39.432;-77.518;2023-02-13T05:41:08;98616.18;;;6.02;46.69
65013;BME280;51715;39.432;-77.518;2023-02-13T05:43:37;98614.68;;;6.26;46.06
65013;BME280;51715;39.432;-77.518;2023-02-13T05:46:07;98611.80;;;6.10;46.12
65013;BME280;51715;39.432;-77.518;2023-02-13T05:48:35;98613.10;;;5.77;46.40
65013;BME280;51715;39.432;-77.518;2023-02-13T05:51:04;98611.77;;;5.88;45.87
65013;BME280;51715;39.432;-77.518;2023-02-13T05:53:33;98614.49;;;5.89;45.63
65013;BME280;51715;39.432;-77.518;2023-02-13T05:56:03;98618.27;;;6.01;45.61
65013;BME280;51715;39.432;-77.518;2023-02-13T05:58:32;98619.00;;;6.06;46.03
65013;BME280;51715;39.432;-77.518;2023-02-13T06:01:01;98615.67;;;5.66;46.20
65013;BME280;51715;39.432;-77.518;2023-02-13T06:03:30;98615.37;;;5.54;46.17
65013;BME280;51715;39.432;-77.518;2023-02-13T06:05:59;98612.00;;;6.07;45.82
65013;BME280;51715;39.432;-77.518;2023-02-13T06:08:27;98609.74;;;6.32;45.46
65013;BME280;51715;39.432;-77.518;2023-02-13T06:10:55;98608.16;;;6.16;45.37
65013;BME280;51715;39.432;-77.518;2023-02-13T06:13:24;98600.42;;;6.13;45.26
65013;BME280;51715;39.432;-77.518;2023-02-13T06:15:52;98600.89;;;6.37;45.13
65013;BME280;51715;39.432;-77.518;2023-02-13T06:18:21;98595.12;;;6.06;45.01
65013;BME280;51715;39.432;-77.518;2023-02-13T06:20:50;98596.89;;;6.26;45.17
65013;BME280;51715;39.432;-77.518;2023-02-13T06:23:18;98597.66;;;5.96;44.98
65013;BME280;51715;39.432;-77.518;2023-02-13T06:25:46;98595.34;;;5.53;46.06
65013;BME280;51715;39.432;-77.518;2023-02-13T06:28:15;98594.01;;;5.74;45.85
65013;BME280;51715;39.432;-77.518;2023-02-13T06:30:43;98586.07;;;5.83;45.37
65013;BME280;51715;39.432;-77.518;2023-02-13T06:33:11;98586.82;;;6.14;45.09
65013;BME280;51715;39.432;-77.518;2023-02-13T06:35:40;98585.79;;;5.88;44.83
65013;BME280;51715;39.432;-77.518;2023-02-13T06:38:08;98589.64;;;5.97;44.73
65013;BME280;51715;39.432;-77.518;2023-02-13T06:40:36;98586.84;;;6.00;44.40
65013;BME280;51715;39.432;-77.518;2023-02-13T06:43:04;98590.42;;;6.01;44.68
65013;BME280;51715;39.432;-77.518;2023-02-13T06:45:33;98591.79;;;5.48;45.89
65013;BME280;51715;39.432;-77.518;2023-02-13T06:48:00;98601.42;;;5.79;45.43
65013;BME280;51715;39.432;-77.518;2023-02-13T06:50:29;98605.44;;;4.77;46.57
65013;BME280;51715;39.432;-77.518;2023-02-13T06:52:58;98610.57;;;5.47;45.96
65013;BME280;51715;39.432;-77.518;2023-02-13T06:55:26;98612.31;;;5.56;45.63
65013;BME280;51715;39.432;-77.518;2023-02-13T06:57:54;98613.79;;;5.76;45.09
65013;BME280;51715;39.432;-77.518;2023-02-13T07:00:22;98618.77;;;5.92;44.91
65013;BME280;51715;39.432;-77.518;2023-02-13T07:02:50;98621.92;;;5.85;44.87
65013;BME280;51715;39.432;-77.518;2023-02-13T07:05:19;98621.10;;;5.88;44.63
65013;BME280;51715;39.432;-77.518;2023-02-13T07:07:47;98615.91;;;5.78;44.56
65013;BME280;51715;39.432;-77.518;2023-02-13T07:10:16;98610.65;;;5.78;44.59
65013;BME280;51715;39.432;-77.518;2023-02-13T07:12:44;98612.16;;;5.65;44.60
65013;BME280;51715;39.432;-77.518;2023-02-13T07:15:13;98613.27;;;5.68;44.71
65013;BME280;51715;39.432;-77.518;2023-02-13T07:17:41;98613.63;;;5.36;44.60
65013;BME280;51715;39.432;-77.518;2023-02-13T07:20:09;98616.38;;;5.67;44.50
65013;BME280;51715;39.432;-77.518;2023-02-13T07:22:38;98606.90;;;5.49;45.18
65013;BME280;51715;39.432;-77.518;2023-02-13T07:25:06;98608.59;;;5.40;45.27
65013;BME280;51715;39.432;-77.518;2023-02-13T07:27:35;98608.92;;;5.32;45.12
65013;BME280;51715;39.432;-77.518;2023-02-13T07:30:04;98609.26;;;5.19;45.38
65013;BME280;51715;39.432;-77.518;2023-02-13T07:32:32;98600.80;;;4.81;45.48
65013;BME280;51715;39.432;-77.518;2023-02-13T07:35:01;98606.47;;;5.28;44.75
65013;BME280;51715;39.432;-77.518;2023-02-13T07:37:30;98609.20;;;5.35;44.38
65013;BME280;51715;39.432;-77.518;2023-02-13T07:39:58;98614.19;;;5.57;44.19
65013;BME280;51715;39.432;-77.518;2023-02-13T07:42:27;98620.73;;;5.79;44.24
65013;BME280;51715;39.432;-77.518;2023-02-13T07:44:56;98623.22;;;5.28;44.43
65013;BME280;51715;39.432;-77.518;2023-02-13T07:47:24;98627.52;;;5.32;44.74
65013;BME280;51715;39.432;-77.518;2023-02-13T07:49:53;98622.79;;;5.50;44.66
65013;BME280;51715;39.432;-77.518;2023-02-13T07:52:21;98623.75;;;5.13;44.70
65013;BME280;51715;39.432;-77.518;2023-02-13T07:54:49;98618.19;;;5.57;44.05
65013;BME280;51715;39.432;-77.518;2023-02-13T07:57:18;98617.44;;;5.51;44.45
65013;BME280;51715;39.432;-77.518;2023-02-13T07:59:46;98614.15;;;5.58;44.49
65013;BME280;51715;39.432;-77.518;2023-02-13T08:02:15;98615.94;;;5.61;44.45
65013;BME280;51715;39.432;-77.518;2023-02-13T08:04:44;98617.06;;;5.27;44.25
65013;BME280;51715;39.432;-77.518;2023-02-13T08:07:13;98626.77;;;5.17;44.43
65013;BME280;51715;39.432;-77.518;2023-02-13T08:09:44;98626.03;;;5.26;44.35
65013;BME280;51715;39.432;-77.518;2023-02-13T08:12:12;98629.56;;;4.97;44.56
65013;BME280;51715;39.432;-77.518;2023-02-13T08:14:40;98629.23;;;4.94;44.46
65013;BME280;51715;39.432;-77.518;2023-02-13T08:17:09;98624.75;;;4.92;44.48
65013;BME280;51715;39.432;-77.518;2023-02-13T08:19:37;98618.14;;;4.63;44.84
65013;BME280;51715;39.432;-77.518;2023-02-13T08:22:06;98617.93;;;4.95;44.69
65013;BME280;51715;39.432;-77.518;2023-02-13T08:24:34;98615.91;;;4.68;44.52
65013;BME280;51715;39.432;-77.518;2023-02-13T08:27:02;98616.43;;;4.90;44.50
65013;BME280;51715;39.432;-77.518;2023-02-13T08:29:30;98614.51;;;4.94;44.42
65013;BME280;51715;39.432;-77.518;2023-02-13T08:31:58;98614.95;;;4.95;44.38
65013;BME280;51715;39.432;-77.518;2023-02-13T08:34:26;98617.81;;;4.63;44.34
65013;BME280;51715;39.432;-77.518;2023-02-13T08:36:54;98618.43;;;4.65;44.41
65013;BME280;51715;39.432;-77.518;2023-02-13T08:39:22;98620.06;;;4.88;44.08
65013;BME280;51715;39.432;-77.518;2023-02-13T08:41:50;98618.80;;;4.91;44.28
65013;BME280;51715;39.432;-77.518;2023-02-13T08:44:19;98615.43;;;4.73;44.23
65013;BME280;51715;39.432;-77.518;2023-02-13T08:46:47;98614.53;;;4.79;44.22
65013;BME280;51715;39.432;-77.518;2023-02-13T08:49:15;98616.90;;;4.89;43.91
65013;BME280;51715;39.432;-77.518;2023-02-13T08:51:43;98622.00;;;4.78;43.81
65013;BME280;51715;39.432;-77.518;2023-02-13T08:54:11;98626.26;;;4.86;43.64
65013;BME280;51715;39.432;-77.518;2023-02-13T08:56:39;98627.79;;;4.73;43.73
65013;BME280;51715;39.432;-77.518;2023-02-13T08:59:07;98637.99;;;4.21;44.43
65013;BME280;51715;39.432;-77.518;2023-02-13T09:01:36;98644.03;;;3.87;45.46
65013;BME280;51715;39.432;-77.518;2023-02-13T09:04:04;98644.97;;;3.89;45.12
65013;BME280;51715;39.432;-77.518;2023-02-13T09:06:33;98643.06;;;4.39;44.96
65013;BME280;51715;39.432;-77.518;2023-02-13T09:09:01;98637.66;;;4.12;44.97
65013;BME280;51715;39.432;-77.518;2023-02-13T09:11:31;98637.30;;;4.13;44.98
65013;BME280;51715;39.432;-77.518;2023-02-13T09:14:00;98635.30;;;4.45;44.68
65013;BME280;51715;39.432;-77.518;2023-02-13T09:16:28;98637.65;;;4.38;44.65
65013;BME280;51715;39.432;-77.518;2023-02-13T09:18:56;98641.10;;;4.04;45.07
65013;BME280;51715;39.432;-77.518;2023-02-13T09:21:24;98641.72;;;3.88;45.22
65013;BME280;51715;39.432;-77.518;2023-02-13T09:23:52;98642.57;;;3.88;45.24
65013;BME280;51715;39.432;-77.518;2023-02-13T09:26:21;98646.22;;;4.14;45.29
65013;BME280;51715;39.432;-77.518;2023-02-13T09:28:49;98646.71;;;4.25;45.09
65013;BME280;51715;39.432;-77.518;2023-02-13T09:31:20;98649.39;;;3.98;45.05
65013;BME280;51715;39.432;-77.518;2023-02-13T09:33:48;98649.52;;;3.94;45.24
65013;BME280;51715;39.432;-77.518;2023-02-13T09:36:18;98653.05;;;4.26;45.14
65013;BME280;51715;39.432;-77.518;2023-02-13T09:38:50;98656.06;;;4.25;44.76
65013;BME280;51715;39.432;-77.518;2023-02-13T09:41:21;98659.48;;;4.13;44.94
65013;BME280;51715;39.432;-77.518;2023-02-13T09:43:54;98659.60;;;3.89;45.45
65013;BME280;51715;39.432;-77.518;2023-02-13T09:46:27;98659.41;;;3.73;45.76
65013;BME280;51715;39.432;-77.518;2023-02-13T09:48:57;98658.88;;;3.42;46.52
65013;BME280;51715;39.432;-77.518;2023-02-13T09:51:27;98656.34;;;3.25;46.44
65013;BME280;51715;39.432;-77.518;2023-02-13T09:54:00;98653.00;;;3.28;46.45
65013;BME280;51715;39.432;-77.518;2023-02-13T09:56:39;98655.03;;;3.36;45.89
65013;BME280;51715;39.432;-77.518;2023-02-13T09:59:23;98654.85;;;3.63;45.50
65013;BME280;51715;39.432;-77.518;2023-02-13T10:01:59;98657.92;;;3.79;44.99
65013;BME280;51715;39.432;-77.518;2023-02-13T10:04:31;98663.38;;;4.13;44.82
65013;BME280;51715;39.432;-77.518;2023-02-13T10:07:14;98668.66;;;3.87;44.80
65013;BME280;51715;39.432;-77.518;2023-02-13T10:09:51;98665.05;;;3.91;44.96
65013;BME280;51715;39.432;-77.518;2023-02-13T10:12:29;98667.37;;;3.51;45.03
65013;BME280;51715;39.432;-77.518;2023-02-13T10:15:12;98670.93;;;3.71;45.43
65013;BME280;51715;39.432;-77.518;2023-02-13T10:17:44;98678.63;;;3.56;45.38
65013;BME280;51715;39.432;-77.518;2023-02-13T10:20:24;98685.18;;;3.42;45.33
65013;BME280;51715;39.432;-77.518;2023-02-13T10:22:58;98683.98;;;3.24;45.30
65013;BME280;51715;39.432;-77.518;2023-02-13T10:25:31;98685.37;;;3.14;45.56
65013;BME280;51715;39.432;-77.518;2023-02-13T10:28:06;98687.75;;;3.61;45.07
65013;BME280;51715;39.432;-77.518;2023-02-13T10:30:45;98694.00;;;3.60;45.27
65013;BME280;51715;39.432;-77.518;2023-02-13T10:33:19;98702.87;;;3.23;45.51
65013;BME280;51715;39.432;-77.518;2023-02-13T10:35:55;98700.44;;;3.52;45.53
65013;BME280;51715;39.432;-77.518;2023-02-13T10:38:29;98703.47;;;2.88;45.41
65013;BME280;51715;39.432;-77.518;2023-02-13T10:41:05;98699.73;;;3.22;45.00
65013;BME280;51715;39.432;-77.518;2023-02-13T10:43:39;98694.65;;;3.37;44.84
65013;BME280;51715;39.432;-77.518;2023-02-13T10:46:21;98697.32;;;3.38;44.85
65013;BME280;51715;39.432;-77.518;2023-02-13T10:49:08;98693.74;;;3.26;45.08
65013;BME280;51715;39.432;-77.518;2023-02-13T10:51:47;98690.43;;;3.02;45.33
65013;BME280;51715;39.432;-77.518;2023-02-13T10:54:27;98687.90;;;2.96;44.70
65013;BME280;51715;39.432;-77.518;2023-02-13T10:57:07;98696.03;;;3.32;44.83
65013;BME280;51715;39.432;-77.518;2023-02-13T10:59:50;98691.69;;;1.94;46.91
65013;BME280;51715;39.432;-77.518;2023-02-13T11:02:25;98699.36;;;1.88;47.64
65013;BME280;51715;39.432;-77.518;2023-02-13T11:04:59;98701.57;;;1.85;47.39
65013;BME280;51715;39.432;-77.518;2023-02-13T11:07:28;98696.59;;;1.85;47.62
65013;BME280;51715;39.432;-77.518;2023-02-13T11:10:12;98695.97;;;2.28;46.34
65013;BME280;51715;39.432;-77.518;2023-02-13T11:12:40;98693.68;;;2.61;45.61
65013;BME280;51715;39.432;-77.518;2023-02-13T11:15:24;98693.51;;;2.70;44.97
65013;BME280;51715;39.432;-77.518;2023-02-13T11:17:55;98692.81;;;2.77;44.92
65013;BME280;51715;39.432;-77.518;2023-02-13T11:20:32;98694.60;;;2.92;44.43
65013;BME280;51715;39.432;-77.518;2023-02-13T11:24:07;98697.62;;;2.37;45.65
65013;BME280;51715;39.432;-77.518;2023-02-13T11:26:48;98697.51;;;2.59;47.39
65013;BME280;51715;39.432;-77.518;2023-02-13T11:29:22;98696.00;;;2.52;45.42
65013;BME280;51715;39.432;-77.518;2023-02-13T11:32:04;98698.09;;;2.34;45.38
65013;BME280;51715;39.432;-77.518;2023-02-13T11:34:33;98705.00;;;1.98;46.41
65013;BME280;51715;39.432;-77.518;2023-02-13T11:37:20;98702.03;;;2.16;45.33
65013;BME280;51715;39.432;-77.518;2023-02-13T11:39:50;98706.89;;;2.28;44.66
65013;BME280;51715;39.432;-77.518;2023-02-13T11:42:26;98708.96;;;2.24;44.76
65013;BME280;51715;39.432;-77.518;2023-02-13T11:44:58;98711.23;;;2.35;44.37
65013;BME280;51715;39.432;-77.518;2023-02-13T11:47:33;98716.84;;;2.56;44.18
65013;BME280;51715;39.432;-77.518;2023-02-13T11:50:03;98717.63;;;2.74;43.56
65013;BME280;51715;39.432;-77.518;2023-02-13T11:52:34;98720.43;;;2.71;43.81
65013;BME280;51715;39.432;-77.518;2023-02-13T11:55:05;98722.88;;;2.89;43.22
65013;BME280;51715;39.432;-77.518;2023-02-13T11:57:57;98722.39;;;2.86;43.29
65013;BME280;51715;39.432;-77.518;2023-02-13T12:00:30;98718.55;;;2.83;43.16
65013;BME280;51715;39.432;-77.518;2023-02-13T12:02:58;98725.14;;;2.02;44.76
65013;BME280;51715;39.432;-77.518;2023-02-13T12:05:27;98718.59;;;2.11;44.35
65013;BME280;51715;39.432;-77.518;2023-02-13T12:07:59;98729.79;;;2.35;43.78
65013;BME280;51715;39.432;-77.518;2023-02-13T12:10:30;98728.08;;;2.19;44.29
65013;BME280;51715;39.432;-77.518;2023-02-13T12:13:08;98734.59;;;2.50;43.84
65013;BME280;51715;39.432;-77.518;2023-02-13T12:15:41;98736.61;;;2.17;43.62
65013;BME280;51715;39.432;-77.518;2023-02-13T12:18:18;98740.98;;;2.03;43.95
65013;BME280;51715;39.432;-77.518;2023-02-13T12:20:56;98732.40;;;2.54;43.64
65013;BME280;51715;39.432;-77.518;2023-02-13T12:23:32;98734.65;;;2.07;44.59
65013;BME280;51715;39.432;-77.518;2023-02-13T12:26:18;98739.31;;;1.96;44.42
65013;BME280;51715;39.432;-77.518;2023-02-13T12:29:01;98740.98;;;1.82;44.55
65013;BME280;51715;39.432;-77.518;2023-02-13T12:31:45;98744.61;;;1.85;44.51
65013;BME280;51715;39.432;-77.518;2023-02-13T12:34:39;98745.07;;;2.18;44.37
65013;BME280;51715;39.432;-77.518;2023-02-13T12:37:23;98739.01;;;2.30;43.80
65013;BME280;51715;39.432;-77.518;2023-02-13T12:40:08;98743.78;;;2.59;43.55
65013;BME280;51715;39.432;-77.518;2023-02-13T12:42:53;98750.44;;;2.82;43.41
65013;BME280;51715;39.432;-77.518;2023-02-13T12:45:33;98760.79;;;2.86;42.76
65013;BME280;51715;39.432;-77.518;2023-02-13T12:48:17;98767.47;;;2.67;43.99
65013;BME280;51715;39.432;-77.518;2023-02-13T12:51:00;98773.36;;;3.07;43.15
65013;BME280;51715;39.432;-77.518;2023-02-13T12:53:46;98780.60;;;2.99;43.07
65013;BME280;51715;39.432;-77.518;2023-02-13T12:56:29;98786.34;;;2.85;43.55
65013;BME280;51715;39.432;-77.518;2023-02-13T12:59:09;98790.58;;;2.86;42.98
65013;BME280;51715;39.432;-77.518;2023-02-13T13:04:18;98793.02;;;3.32;43.25
65013;BME280;51715;39.432;-77.518;2023-02-13T13:07:07;98783.93;;;3.41;43.07
65013;BME280;51715;39.432;-77.518;2023-02-13T13:09:56;98786.33;;;3.39;44.44
65013;BME280;51715;39.432;-77.518;2023-02-13T13:12:37;98784.69;;;3.58;43.63
65013;BME280;51715;39.432;-77.518;2023-02-13T13:15:13;98790.07;;;4.11;43.59
65013;BME280;51715;39.432;-77.518;2023-02-13T13:17:55;98787.07;;;3.76;42.48
65013;BME280;51715;39.432;-77.518;2023-02-13T13:20:39;98782.35;;;3.85;40.84
65013;BME280;51715;39.432;-77.518;2023-02-13T13:23:16;98789.28;;;3.70;41.99
65013;BME280;51715;39.432;-77.518;2023-02-13T13:25:54;98793.61;;;4.61;42.76
65013;BME280;51715;39.432;-77.518;2023-02-13T13:28:31;98794.76;;;4.75;42.34
65013;BME280;51715;39.432;-77.518;2023-02-13T13:31:02;98795.62;;;4.55;40.40
65013;BME280;51715;39.432;-77.518;2023-02-13T13:33:32;98802.65;;;4.57;38.85
65013;BME280;51715;39.432;-77.518;2023-02-13T13:36:06;98805.01;;;5.01;39.26
65013;BME280;51715;39.432;-77.518;2023-02-13T13:38:46;98808.52;;;5.46;41.36
65013;BME280;51715;39.432;-77.518;2023-02-13T13:41:24;98797.72;;;5.74;41.94
